createdAt,value
2016-09-17T00:00:00.587Z,49.6
2016-09-17T00:00:32.927Z,49.99
2016-09-17T00:01:05.252Z,49.7
2016-09-17T00:01:37.574Z,49.9
2016-09-17T00:02:09.898Z,49.99
2016-09-17T00:02:42.249Z,49.9
2016-09-17T00:03:14.581Z,49.7
2016-09-17T00:03:46.914Z,49.9
2016-09-17T00:04:19.247Z,49.99
2016-09-17T00:04:51.580Z,49.9
2016-09-17T00:05:23.896Z,49.9
2016-09-17T00:05:56.202Z,49.8
2016-09-17T00:06:28.522Z,49.99
2016-09-17T00:07:00.851Z,49.6
2016-09-17T00:07:33.179Z,49.9
2016-09-17T00:08:05.522Z,49.6
2016-09-17T00:08:37.855Z,49.9
2016-09-17T00:09:10.180Z,49.51
2016-09-17T00:09:42.517Z,49.9
2016-09-17T00:10:14.850Z,50.28
2016-09-17T00:10:47.176Z,49.8
2016-09-17T00:11:19.512Z,49.8
2016-09-17T00:11:51.852Z,49.9
2016-09-17T00:12:24.165Z,49.7
2016-09-17T00:12:56.468Z,49.51
2016-09-17T00:13:28.786Z,49.8
2016-09-17T00:14:01.101Z,50.18
2016-09-17T00:14:33.441Z,50.09
2016-09-17T00:15:05.756Z,49.6
2016-09-17T00:15:38.073Z,49.8
2016-09-17T00:16:10.399Z,49.97
2016-09-17T00:16:42.724Z,49.9
2016-09-17T00:17:15.043Z,49.9
2016-09-17T00:17:47.377Z,50.16
2016-09-17T00:18:19.706Z,49.68
2016-09-17T00:18:52.042Z,50.09
2016-09-17T00:19:24.364Z,49.68
2016-09-17T00:19:56.673Z,49.99
2016-09-17T00:20:29.003Z,49.97
2016-09-17T00:21:01.335Z,50.28
2016-09-17T00:21:33.654Z,49.99
2016-09-17T00:22:05.967Z,49.77
2016-09-17T00:22:38.301Z,49.9
2016-09-17T00:23:10.633Z,49.99
2016-09-17T00:23:42.964Z,49.99
2016-09-17T00:24:15.297Z,49.87
2016-09-17T00:24:47.627Z,49.97
2016-09-17T00:25:19.962Z,49.77
2016-09-17T00:25:52.284Z,49.87
2016-09-17T00:26:24.613Z,49.97
2016-09-17T00:26:56.940Z,49.68
2016-09-17T00:27:29.262Z,49.77
2016-09-17T00:28:01.583Z,49.87
2016-09-17T00:28:33.904Z,49.77
2016-09-17T00:29:06.232Z,49.99
2016-09-17T00:29:38.562Z,49.87
2016-09-17T00:30:10.884Z,49.77
2016-09-17T00:30:43.235Z,49.77
2016-09-17T00:31:15.548Z,49.97
2016-09-17T00:31:47.863Z,49.77
2016-09-17T00:32:20.193Z,49.87
2016-09-17T00:32:52.515Z,49.77
2016-09-17T00:33:24.834Z,50.16
2016-09-17T00:33:57.154Z,50.07
2016-09-17T00:34:29.479Z,50.07
2016-09-17T00:35:01.810Z,49.97
2016-09-17T00:35:34.129Z,50.16
2016-09-17T00:36:06.457Z,49.97
2016-09-17T00:36:38.778Z,49.97
2016-09-17T00:37:11.102Z,49.87
2016-09-17T00:37:43.423Z,50.07
2016-09-17T00:38:15.751Z,49.87
2016-09-17T00:38:48.073Z,50.07
2016-09-17T00:39:20.411Z,50.07
2016-09-17T00:39:52.740Z,50.07
2016-09-17T00:40:25.066Z,50.07
2016-09-17T00:40:57.384Z,49.77
2016-09-17T00:41:29.739Z,49.97
2016-09-17T00:42:02.070Z,50.16
2016-09-17T00:42:34.394Z,49.77
2016-09-17T00:43:06.717Z,50.16
2016-09-17T00:43:39.050Z,50.07
2016-09-17T00:44:11.387Z,50.07
2016-09-17T00:44:43.704Z,49.97
2016-09-17T00:45:16.063Z,49.77
2016-09-17T00:45:48.373Z,50.35
2016-09-17T00:46:20.690Z,49.97
2016-09-17T00:46:53.007Z,50.07
2016-09-17T00:47:25.330Z,49.87
2016-09-17T00:47:57.652Z,49.77
2016-09-17T00:48:29.992Z,50.07
2016-09-17T00:49:02.316Z,49.77
2016-09-17T00:49:34.639Z,49.87
2016-09-17T00:50:06.979Z,49.97
2016-09-17T00:50:39.308Z,49.97
2016-09-17T00:51:11.633Z,49.87
2016-09-17T00:51:43.961Z,50.07
2016-09-17T00:52:16.276Z,49.87
2016-09-17T00:52:48.627Z,50.26
2016-09-17T00:53:20.947Z,50.07
2016-09-17T00:53:53.252Z,49.68
2016-09-17T00:54:25.581Z,50.07
2016-09-17T00:54:57.908Z,50.07
2016-09-17T00:55:30.232Z,50.07
2016-09-17T00:56:02.566Z,49.68
2016-09-17T00:56:34.877Z,49.68
2016-09-17T00:57:07.207Z,49.77
2016-09-17T00:57:39.537Z,49.87
2016-09-17T00:58:11.858Z,49.77
2016-09-17T00:58:44.192Z,49.77
2016-09-17T00:59:16.531Z,50.26
2016-09-17T00:59:48.860Z,49.97
2016-09-17T01:00:21.194Z,50.16
2016-09-17T01:00:53.516Z,50.07
2016-09-17T01:01:25.838Z,50.26
2016-09-17T01:01:58.171Z,50.35
2016-09-17T01:02:30.511Z,50.16
2016-09-17T01:03:02.839Z,50.16
2016-09-17T01:03:35.176Z,50.07
2016-09-17T01:04:07.505Z,50.26
2016-09-17T01:04:39.836Z,50.26
2016-09-17T01:05:12.151Z,50.26
2016-09-17T01:05:44.474Z,50.26
2016-09-17T01:06:16.796Z,50.07
2016-09-17T01:06:49.119Z,50.07
2016-09-17T01:07:21.440Z,50.26
2016-09-17T01:07:53.765Z,50.16
2016-09-17T01:08:26.083Z,50.26
2016-09-17T01:08:58.401Z,50.16
2016-09-17T01:09:30.720Z,50.16
2016-09-17T01:10:03.044Z,50.35
2016-09-17T01:10:35.361Z,50.16
2016-09-17T01:11:07.697Z,49.97
2016-09-17T01:11:40.018Z,49.77
2016-09-17T01:12:12.339Z,49.87
2016-09-17T01:12:44.652Z,50.35
2016-09-17T01:13:16.971Z,50.16
2016-09-17T01:13:49.312Z,49.77
2016-09-17T01:14:21.622Z,50.26
2016-09-17T01:14:53.946Z,50.16
2016-09-17T01:15:26.266Z,50.16
2016-09-17T01:15:58.603Z,50.23
2016-09-17T01:16:30.938Z,50.26
2016-09-17T01:17:03.264Z,50.16
2016-09-17T01:17:35.585Z,50.07
2016-09-17T01:18:07.901Z,50.16
2016-09-17T01:18:40.248Z,50.35
2016-09-17T01:19:12.573Z,50.26
2016-09-17T01:19:44.878Z,50.26
2016-09-17T01:20:17.211Z,50.26
2016-09-17T01:20:49.526Z,50.26
2016-09-17T01:21:21.861Z,50.26
2016-09-17T01:21:54.181Z,49.97
2016-09-17T01:22:26.492Z,50.26
2016-09-17T01:22:58.799Z,50.16
2016-09-17T01:23:31.116Z,50.07
2016-09-17T01:24:03.439Z,50.07
2016-09-17T01:24:35.769Z,50.35
2016-09-17T01:25:08.087Z,50.35
2016-09-17T01:25:40.415Z,50.07
2016-09-17T01:26:12.744Z,50.26
2016-09-17T01:26:45.064Z,50.45
2016-09-17T01:27:17.400Z,50.33
2016-09-17T01:27:49.723Z,50.35
2016-09-17T01:28:22.056Z,50.26
2016-09-17T01:28:54.370Z,50.16
2016-09-17T01:29:26.690Z,49.97
2016-09-17T01:29:59.009Z,50.26
2016-09-17T01:30:31.336Z,50.26
2016-09-17T01:31:03.670Z,50.33
2016-09-17T01:31:35.974Z,50.35
2016-09-17T01:32:08.303Z,50.35
2016-09-17T01:32:40.646Z,50.35
2016-09-17T01:33:12.964Z,50.26
2016-09-17T01:33:45.294Z,50.26
2016-09-17T01:34:17.617Z,50.33
2016-09-17T01:34:49.944Z,50.07
2016-09-17T01:35:22.272Z,50.13
2016-09-17T01:35:54.587Z,50.13
2016-09-17T01:36:26.916Z,50.45
2016-09-17T01:36:59.247Z,50.23
2016-09-17T01:37:31.565Z,50.13
2016-09-17T01:38:03.872Z,50.23
2016-09-17T01:38:36.195Z,50.33
2016-09-17T01:39:08.523Z,50.45
2016-09-17T01:39:40.849Z,50.13
2016-09-17T01:40:13.181Z,50.23
2016-09-17T01:40:45.502Z,49.97
2016-09-17T01:41:17.832Z,49.87
2016-09-17T01:41:50.173Z,50.13
2016-09-17T01:42:22.492Z,50.33
2016-09-17T01:42:54.799Z,50.23
2016-09-17T01:43:27.128Z,50.33
2016-09-17T01:43:59.457Z,50.13
2016-09-17T01:44:31.785Z,49.77
2016-09-17T01:45:04.107Z,49.95
2016-09-17T01:45:36.437Z,50.04
2016-09-17T01:46:08.749Z,50.13
2016-09-17T01:46:41.075Z,50.13
2016-09-17T01:47:13.400Z,50.13
2016-09-17T01:47:45.701Z,49.55
2016-09-17T01:48:18.027Z,49.95
2016-09-17T01:48:50.356Z,50.23
2016-09-17T01:49:22.682Z,50.13
2016-09-17T01:49:55.012Z,50.13
2016-09-17T01:50:27.329Z,49.65
2016-09-17T01:50:59.666Z,50.52
2016-09-17T01:51:31.986Z,50.13
2016-09-17T01:52:04.289Z,49.55
2016-09-17T01:52:36.604Z,50.13
2016-09-17T01:53:08.929Z,49.75
2016-09-17T01:53:41.247Z,50.04
2016-09-17T01:54:13.561Z,49.75
2016-09-17T01:54:45.879Z,49.85
2016-09-17T01:55:18.214Z,49.75
2016-09-17T01:55:50.546Z,50.23
2016-09-17T01:56:22.883Z,49.85
2016-09-17T01:56:55.207Z,49.95
2016-09-17T01:57:27.566Z,50.62
2016-09-17T01:57:59.894Z,49.85
2016-09-17T01:58:32.212Z,49.75
2016-09-17T01:59:04.535Z,50.04
2016-09-17T01:59:36.867Z,49.85
2016-09-17T02:00:09.198Z,50.62
2016-09-17T02:00:41.520Z,49.75
2016-09-17T02:01:13.827Z,50.52
2016-09-17T02:01:46.160Z,49.75
2016-09-17T02:02:19.187Z,49.85
2016-09-17T02:02:51.528Z,50.62
2016-09-17T02:03:23.862Z,49.95
2016-09-17T02:03:56.188Z,49.95
2016-09-17T02:04:28.507Z,49.85
2016-09-17T02:05:00.838Z,49.95
2016-09-17T02:05:33.161Z,49.85
2016-09-17T02:06:05.463Z,49.95
2016-09-17T02:06:37.791Z,50.71
2016-09-17T02:07:10.119Z,50.62
2016-09-17T02:07:42.437Z,49.75
2016-09-17T02:08:14.753Z,49.95
2016-09-17T02:08:47.070Z,50.62
2016-09-17T02:09:19.398Z,50.62
2016-09-17T02:09:51.727Z,50.62
2016-09-17T02:10:24.042Z,50.13
2016-09-17T02:10:56.359Z,50.13
2016-09-17T02:11:28.686Z,49.95
2016-09-17T02:12:01.025Z,50.52
2016-09-17T02:12:33.360Z,50.62
2016-09-17T02:13:05.677Z,50.62
2016-09-17T02:13:38.004Z,50.04
2016-09-17T02:14:10.328Z,50.04
2016-09-17T02:14:42.652Z,50.13
2016-09-17T02:15:14.987Z,50.71
2016-09-17T02:15:47.303Z,50.62
2016-09-17T02:16:19.626Z,49.85
2016-09-17T02:16:51.962Z,50.43
2016-09-17T02:17:24.329Z,49.95
2016-09-17T02:17:56.659Z,50.43
2016-09-17T02:18:28.982Z,50.13
2016-09-17T02:19:01.318Z,49.95
2016-09-17T02:19:33.661Z,50.13
2016-09-17T02:20:05.992Z,49.95
2016-09-17T02:20:38.311Z,50.52
2016-09-17T02:21:10.640Z,50.52
2016-09-17T02:21:42.966Z,50.23
2016-09-17T02:22:15.302Z,50.13
2016-09-17T02:22:47.633Z,50.13
2016-09-17T02:23:19.972Z,50.04
2016-09-17T02:23:52.311Z,49.95
2016-09-17T02:24:24.641Z,50.04
2016-09-17T02:24:56.961Z,50.52
2016-09-17T02:25:29.290Z,50.13
2016-09-17T02:26:01.621Z,50.52
2016-09-17T02:26:33.954Z,50.04
2016-09-17T02:27:06.293Z,49.85
2016-09-17T02:27:38.623Z,50.33
2016-09-17T02:28:10.944Z,50.04
2016-09-17T02:28:43.263Z,50.33
2016-09-17T02:29:15.593Z,49.95
2016-09-17T02:29:47.915Z,50.33
2016-09-17T02:30:20.246Z,50.13
2016-09-17T02:30:52.567Z,50.33
2016-09-17T02:31:24.897Z,50.23
2016-09-17T02:31:57.215Z,49.95
2016-09-17T02:32:29.533Z,50.13
2016-09-17T02:33:01.866Z,49.75
2016-09-17T02:33:34.204Z,49.95
2016-09-17T02:34:06.523Z,50.13
2016-09-17T02:34:38.845Z,49.85
2016-09-17T02:35:11.170Z,50.13
2016-09-17T02:35:43.489Z,49.75
2016-09-17T02:36:15.821Z,50.13
2016-09-17T02:36:48.139Z,49.85
2016-09-17T02:37:20.461Z,50.33
2016-09-17T02:37:52.769Z,49.85
2016-09-17T02:38:25.097Z,50.23
2016-09-17T02:38:57.428Z,50.43
2016-09-17T02:39:29.746Z,50.13
2016-09-17T02:40:02.087Z,49.85
2016-09-17T02:40:34.409Z,50.13
2016-09-17T02:41:06.730Z,50.33
2016-09-17T02:41:39.057Z,50.13
2016-09-17T02:42:11.380Z,50.33
2016-09-17T02:42:43.685Z,49.95
2016-09-17T02:43:16.001Z,50.52
2016-09-17T02:43:48.319Z,49.85
2016-09-17T02:44:20.640Z,50.43
2016-09-17T02:44:52.973Z,49.85
2016-09-17T02:45:25.300Z,50.13
2016-09-17T02:45:57.625Z,50.13
2016-09-17T02:46:29.949Z,50.33
2016-09-17T02:47:02.261Z,50.33
2016-09-17T02:47:34.567Z,50.13
2016-09-17T02:48:06.895Z,50.13
2016-09-17T02:48:39.220Z,50.33
2016-09-17T02:49:11.547Z,50.43
2016-09-17T02:49:43.871Z,50.04
2016-09-17T02:50:16.202Z,50.23
2016-09-17T02:50:48.527Z,50.04
2016-09-17T02:51:20.848Z,50.43
2016-09-17T02:51:53.164Z,49.95
2016-09-17T02:52:25.489Z,49.95
2016-09-17T02:52:57.801Z,49.95
2016-09-17T02:53:30.136Z,50.04
2016-09-17T02:54:02.478Z,50.33
2016-09-17T02:54:34.806Z,50.33
2016-09-17T02:55:07.137Z,49.85
2016-09-17T02:55:39.464Z,50.13
2016-09-17T02:56:11.791Z,50.23
2016-09-17T02:56:44.118Z,50.23
2016-09-17T02:57:16.451Z,50.33
2016-09-17T02:57:48.775Z,50.23
2016-09-17T02:58:21.103Z,49.85
2016-09-17T02:58:53.428Z,50.23
2016-09-17T02:59:25.748Z,50.04
2016-09-17T02:59:58.063Z,50.33
2016-09-17T03:00:30.391Z,50.13
2016-09-17T03:01:02.731Z,50.33
2016-09-17T03:01:35.061Z,49.95
2016-09-17T03:02:07.383Z,50.33
2016-09-17T03:02:39.699Z,50.33
2016-09-17T03:03:12.021Z,50.13
2016-09-17T03:03:44.356Z,50.13
2016-09-17T03:04:16.678Z,50.13
2016-09-17T03:04:49.007Z,50.04
2016-09-17T03:05:21.331Z,50.13
2016-09-17T03:05:53.669Z,50.13
2016-09-17T03:06:26.005Z,49.95
2016-09-17T03:06:58.327Z,50.33
2016-09-17T03:07:30.664Z,50.13
2016-09-17T03:08:02.997Z,50.33
2016-09-17T03:08:35.313Z,50.04
2016-09-17T03:09:07.642Z,50.81
2016-09-17T03:09:39.973Z,50.33
2016-09-17T03:10:12.308Z,50.62
2016-09-17T03:10:44.636Z,50.01
2016-09-17T03:11:16.986Z,49.92
2016-09-17T03:11:49.315Z,50.04
2016-09-17T03:12:21.642Z,50.13
2016-09-17T03:12:53.966Z,50.71
2016-09-17T03:13:26.282Z,50.52
2016-09-17T03:13:58.608Z,50.52
2016-09-17T03:14:30.923Z,50.23
2016-09-17T03:15:03.258Z,50.43
2016-09-17T03:15:35.592Z,50.33
2016-09-17T03:16:07.911Z,50.04
2016-09-17T03:16:40.236Z,50.52
2016-09-17T03:17:12.564Z,50.31
2016-09-17T03:17:44.902Z,50.33
2016-09-17T03:18:17.231Z,50.71
2016-09-17T03:18:49.546Z,50.33
2016-09-17T03:19:21.867Z,50.43
2016-09-17T03:19:54.180Z,50.81
2016-09-17T03:20:26.518Z,50.04
2016-09-17T03:20:58.834Z,50.31
2016-09-17T03:21:31.163Z,50.33
2016-09-17T03:22:03.485Z,50.13
2016-09-17T03:22:35.809Z,50.11
2016-09-17T03:23:08.143Z,50.23
2016-09-17T03:23:40.471Z,50.43
2016-09-17T03:24:12.774Z,50.13
2016-09-17T03:24:45.085Z,50.33
2016-09-17T03:25:17.408Z,50.21
2016-09-17T03:25:49.742Z,50.31
2016-09-17T03:26:22.066Z,50.23
2016-09-17T03:26:54.383Z,49.95
2016-09-17T03:27:26.698Z,50.43
2016-09-17T03:27:59.032Z,50.33
2016-09-17T03:28:31.366Z,50.23
2016-09-17T03:29:03.690Z,50.33
2016-09-17T03:29:36.020Z,50.23
2016-09-17T03:30:08.353Z,50.4
2016-09-17T03:30:40.681Z,50.31
2016-09-17T03:31:13.019Z,50.31
2016-09-17T03:31:45.369Z,50.01
2016-09-17T03:32:17.701Z,50.11
2016-09-17T03:32:50.040Z,50.33
2016-09-17T03:33:22.377Z,50.31
2016-09-17T03:33:54.705Z,50.01
2016-09-17T03:34:27.053Z,50.69
2016-09-17T03:34:59.404Z,50.52
2016-09-17T03:35:31.724Z,50.33
2016-09-17T03:36:04.058Z,50.21
2016-09-17T03:36:36.383Z,50.21
2016-09-17T03:37:08.718Z,50.11
2016-09-17T03:37:41.050Z,50.31
2016-09-17T03:38:13.373Z,50.11
2016-09-17T03:38:45.702Z,50.11
2016-09-17T03:39:18.030Z,50.4
2016-09-17T03:39:50.361Z,50.4
2016-09-17T03:40:22.687Z,50.21
2016-09-17T03:40:54.998Z,50.21
2016-09-17T03:41:27.327Z,50.5
2016-09-17T03:41:59.661Z,50.33
2016-09-17T03:42:31.975Z,50.31
2016-09-17T03:43:04.297Z,50.11
2016-09-17T03:43:36.619Z,50.01
2016-09-17T03:44:08.949Z,50.11
2016-09-17T03:44:41.283Z,50.21
2016-09-17T03:45:13.611Z,50.4
2016-09-17T03:45:45.964Z,50.11
2016-09-17T03:46:18.295Z,50.5
2016-09-17T03:46:50.614Z,50.21
2016-09-17T03:47:22.934Z,50.21
2016-09-17T03:47:55.255Z,50.4
2016-09-17T03:48:27.589Z,50.5
2016-09-17T03:48:59.913Z,50.59
2016-09-17T03:49:32.247Z,50.31
2016-09-17T03:50:04.572Z,50.5
2016-09-17T03:50:36.895Z,50.5
2016-09-17T03:51:09.208Z,49.92
2016-09-17T03:51:41.542Z,50.4
2016-09-17T03:52:13.885Z,50.21
2016-09-17T03:52:46.204Z,50.59
2016-09-17T03:53:18.521Z,50.01
2016-09-17T03:53:50.851Z,50.01
2016-09-17T03:54:23.178Z,50.21
2016-09-17T03:54:55.495Z,50.01
2016-09-17T03:55:27.807Z,50.5
2016-09-17T03:56:00.139Z,50.01
2016-09-17T03:56:32.456Z,50.5
2016-09-17T03:57:04.768Z,50.11
2016-09-17T03:57:37.088Z,50.11
2016-09-17T03:58:09.403Z,50.4
2016-09-17T03:58:41.740Z,50.5
2016-09-17T03:59:14.061Z,50.01
2016-09-17T03:59:46.404Z,50.4
2016-09-17T04:00:18.729Z,50.31
2016-09-17T04:00:51.050Z,50.31
2016-09-17T04:01:23.387Z,50.21
2016-09-17T04:01:55.702Z,49.92
2016-09-17T04:02:28.029Z,50.31
2016-09-17T04:03:00.361Z,50.5
2016-09-17T04:03:32.686Z,50.11
2016-09-17T04:04:05.005Z,50.5
2016-09-17T04:04:37.341Z,50.4
2016-09-17T04:05:09.658Z,50.31
2016-09-17T04:05:41.998Z,50.21
2016-09-17T04:06:14.316Z,50.01
2016-09-17T04:06:46.632Z,50.01
2016-09-17T04:07:18.964Z,50.01
2016-09-17T04:07:51.280Z,50.31
2016-09-17T04:08:23.605Z,50.4
2016-09-17T04:08:56.378Z,50.4
2016-09-17T04:09:28.709Z,50.5
2016-09-17T04:10:01.040Z,50.4
2016-09-17T04:10:33.379Z,50.4
2016-09-17T04:11:05.705Z,50.4
2016-09-17T04:11:38.033Z,50.01
2016-09-17T04:12:10.371Z,50.01
2016-09-17T04:12:42.691Z,50.11
2016-09-17T04:13:15.019Z,50.11
2016-09-17T04:13:47.345Z,50.4
2016-09-17T04:14:19.680Z,50.31
2016-09-17T04:14:51.993Z,50.31
2016-09-17T04:15:24.313Z,50.01
2016-09-17T04:15:56.643Z,50.11
2016-09-17T04:16:28.964Z,50.11
2016-09-17T04:17:01.288Z,50.21
2016-09-17T04:17:33.609Z,50.01
2016-09-17T04:18:05.947Z,50.4
2016-09-17T04:18:38.282Z,50.4
2016-09-17T04:19:10.584Z,50.21
2016-09-17T04:19:42.905Z,50.31
2016-09-17T04:20:15.237Z,50.4
2016-09-17T04:20:47.562Z,50.11
2016-09-17T04:21:19.889Z,50.4
2016-09-17T04:21:52.205Z,50.4
2016-09-17T04:22:24.541Z,50.4
2016-09-17T04:22:56.879Z,50.59
2016-09-17T04:23:29.212Z,50.11
2016-09-17T04:24:01.543Z,50.5
2016-09-17T04:24:33.868Z,50.21
2016-09-17T04:25:06.188Z,50.31
2016-09-17T04:25:38.508Z,50.59
2016-09-17T04:26:10.831Z,50.4
2016-09-17T04:26:43.161Z,50.21
2016-09-17T04:27:15.494Z,50.31
2016-09-17T04:27:47.823Z,50.5
2016-09-17T04:28:20.154Z,50.4
2016-09-17T04:28:52.472Z,50.4
2016-09-17T04:29:24.803Z,50.5
2016-09-17T04:29:57.125Z,50.59
2016-09-17T04:30:29.452Z,50.5
2016-09-17T04:31:01.776Z,50.4
2016-09-17T04:31:34.119Z,50.59
2016-09-17T04:32:06.443Z,50.59
2016-09-17T04:32:38.771Z,50.5
2016-09-17T04:33:11.103Z,50.21
2016-09-17T04:33:43.435Z,50.5
2016-09-17T04:34:15.759Z,50.69
2016-09-17T04:34:48.082Z,50.31
2016-09-17T04:35:20.416Z,50.5
2016-09-17T04:35:52.735Z,50.4
2016-09-17T04:36:25.056Z,50.31
2016-09-17T04:36:57.382Z,50.21
2016-09-17T04:37:29.710Z,50.5
2016-09-17T04:38:02.024Z,50.31
2016-09-17T04:38:34.325Z,50.69
2016-09-17T04:39:06.638Z,50.21
2016-09-17T04:39:38.966Z,50.5
2016-09-17T04:40:11.291Z,50.69
2016-09-17T04:40:43.604Z,50.59
2016-09-17T04:41:15.930Z,50.59
2016-09-17T04:41:48.275Z,50.5
2016-09-17T04:42:20.606Z,50.4
2016-09-17T04:42:52.925Z,50.31
2016-09-17T04:43:25.245Z,50.5
2016-09-17T04:43:57.563Z,50.69
2016-09-17T04:44:29.892Z,50.5
2016-09-17T04:45:02.213Z,50.59
2016-09-17T04:45:34.546Z,50.4
2016-09-17T04:46:06.868Z,50.5
2016-09-17T04:46:39.192Z,50.5
2016-09-17T04:47:11.526Z,50.4
2016-09-17T04:47:43.858Z,50.4
2016-09-17T04:48:16.184Z,50.4
2016-09-17T04:48:48.518Z,50.4
2016-09-17T04:49:20.839Z,50.4
2016-09-17T04:49:53.150Z,50.59
2016-09-17T04:50:25.469Z,50.59
2016-09-17T04:50:57.803Z,50.5
2016-09-17T04:51:30.132Z,50.59
2016-09-17T04:52:02.454Z,50.4
2016-09-17T04:52:34.798Z,50.4
2016-09-17T04:53:07.133Z,50.5
2016-09-17T04:53:39.445Z,50.5
2016-09-17T04:54:11.778Z,50.4
2016-09-17T04:54:44.114Z,50.4
2016-09-17T04:55:16.444Z,50.4
2016-09-17T04:55:48.781Z,50.59
2016-09-17T04:56:21.104Z,50.5
2016-09-17T04:56:53.426Z,50.4
2016-09-17T04:57:25.766Z,50.5
2016-09-17T04:57:58.103Z,50.4
2016-09-17T04:58:30.426Z,50.59
2016-09-17T04:59:02.748Z,50.69
2016-09-17T04:59:35.091Z,50.5
2016-09-17T05:00:07.411Z,50.5
2016-09-17T05:00:39.727Z,50.4
2016-09-17T05:01:12.055Z,50.59
2016-09-17T05:01:44.385Z,50.5
2016-09-17T05:02:16.710Z,50.59
2016-09-17T05:02:49.043Z,50.69
2016-09-17T05:03:21.372Z,50.31
2016-09-17T05:03:53.700Z,50.21
2016-09-17T05:04:26.024Z,50.59
2016-09-17T05:04:58.347Z,50.31
2016-09-17T05:05:30.669Z,50.59
2016-09-17T05:06:02.990Z,50.69
2016-09-17T05:06:35.309Z,50.21
2016-09-17T05:07:07.634Z,50.4
2016-09-17T05:07:39.963Z,50.59
2016-09-17T05:08:12.295Z,50.59
2016-09-17T05:08:44.625Z,50.59
2016-09-17T05:09:16.957Z,50.5
2016-09-17T05:09:49.282Z,50.59
2016-09-17T05:10:21.609Z,50.21
2016-09-17T05:10:53.942Z,50.31
2016-09-17T05:11:26.262Z,50.59
2016-09-17T05:11:58.609Z,50.21
2016-09-17T05:12:30.947Z,50.31
2016-09-17T05:13:03.265Z,50.59
2016-09-17T05:13:35.570Z,50.59
2016-09-17T05:14:07.891Z,50.31
2016-09-17T05:14:40.207Z,50.5
2016-09-17T05:15:12.532Z,50.59
2016-09-17T05:15:44.852Z,50.5
2016-09-17T05:16:17.164Z,50.69
2016-09-17T05:16:49.500Z,50.5
2016-09-17T05:17:21.829Z,50.69
2016-09-17T05:17:54.153Z,50.69
2016-09-17T05:18:26.479Z,50.69
2016-09-17T05:18:58.790Z,50.5
2016-09-17T05:19:31.114Z,50.4
2016-09-17T05:20:03.441Z,50.31
2016-09-17T05:20:35.770Z,50.4
2016-09-17T05:21:08.098Z,50.59
2016-09-17T05:21:40.416Z,50.31
2016-09-17T05:22:12.745Z,50.4
2016-09-17T05:22:45.067Z,50.31
2016-09-17T05:23:17.399Z,50.31
2016-09-17T05:23:49.717Z,50.4
2016-09-17T05:24:22.052Z,50.4
2016-09-17T05:24:54.381Z,50.31
2016-09-17T05:25:26.714Z,50.4
2016-09-17T05:25:59.026Z,50.59
2016-09-17T05:26:31.351Z,50.4
2016-09-17T05:27:03.678Z,50.69
2016-09-17T05:27:36.009Z,50.4
2016-09-17T05:28:08.337Z,50.4
2016-09-17T05:28:40.658Z,50.5
2016-09-17T05:29:12.984Z,50.59
2016-09-17T05:29:45.306Z,50.69
2016-09-17T05:30:17.633Z,50.69
2016-09-17T05:30:49.967Z,50.69
2016-09-17T05:31:22.287Z,50.4
2016-09-17T05:31:54.612Z,50.4
2016-09-17T05:32:26.939Z,50.4
2016-09-17T05:32:59.265Z,50.5
2016-09-17T05:33:31.568Z,50.31
2016-09-17T05:34:03.882Z,50.79
2016-09-17T05:34:36.220Z,50.79
2016-09-17T05:35:08.535Z,50.31
2016-09-17T05:35:41.765Z,50.59
2016-09-17T05:36:14.081Z,50.69
2016-09-17T05:36:46.423Z,50.79
2016-09-17T05:37:18.752Z,50.5
2016-09-17T05:37:51.071Z,50.4
2016-09-17T05:38:23.403Z,50.79
2016-09-17T05:38:55.728Z,50.79
2016-09-17T05:39:28.065Z,50.5
2016-09-17T05:40:00.406Z,50.69
2016-09-17T05:40:32.735Z,50.31
2016-09-17T05:41:05.065Z,50.4
2016-09-17T05:41:37.394Z,50.89
2016-09-17T05:42:09.723Z,50.69
2016-09-17T05:42:42.038Z,50.69
2016-09-17T05:43:14.369Z,50.69
2016-09-17T05:43:46.711Z,50.31
2016-09-17T05:44:19.045Z,50.69
2016-09-17T05:44:51.387Z,50.69
2016-09-17T05:45:23.707Z,50.31
2016-09-17T05:45:56.032Z,50.79
2016-09-17T05:46:28.330Z,50.4
2016-09-17T05:47:00.647Z,50.79
2016-09-17T05:47:32.981Z,50.31
2016-09-17T05:48:05.327Z,50.79
2016-09-17T05:48:37.645Z,50.31
2016-09-17T05:49:09.960Z,50.89
2016-09-17T05:49:42.286Z,50.79
2016-09-17T05:50:14.612Z,50.59
2016-09-17T05:50:46.942Z,50.79
2016-09-17T05:51:19.261Z,50.79
2016-09-17T05:51:51.590Z,50.79
2016-09-17T05:52:23.918Z,50.59
2016-09-17T05:52:56.241Z,50.4
2016-09-17T05:53:28.557Z,50.79
2016-09-17T05:54:00.899Z,50.69
2016-09-17T05:54:33.227Z,50.69
2016-09-17T05:55:05.552Z,50.79
2016-09-17T05:55:37.880Z,50.79
2016-09-17T05:56:10.207Z,50.59
2016-09-17T05:56:42.522Z,50.69
2016-09-17T05:57:14.846Z,50.59
2016-09-17T05:57:47.177Z,50.89
2016-09-17T05:58:19.505Z,50.69
2016-09-17T05:58:51.820Z,50.89
2016-09-17T05:59:24.141Z,50.59
2016-09-17T05:59:56.476Z,50.79
2016-09-17T06:00:28.798Z,50.79
2016-09-17T06:01:01.119Z,50.79
2016-09-17T06:01:33.440Z,50.4
2016-09-17T06:02:05.766Z,50.31
2016-09-17T06:02:38.095Z,50.69
2016-09-17T06:03:10.428Z,50.69
2016-09-17T06:03:42.760Z,50.69
2016-09-17T06:04:15.065Z,50.4
2016-09-17T06:04:47.397Z,50.79
2016-09-17T06:05:19.724Z,50.79
2016-09-17T06:05:52.040Z,50.21
2016-09-17T06:06:24.365Z,50.31
2016-09-17T06:06:56.692Z,50.69
2016-09-17T06:07:29.015Z,50.59
2016-09-17T06:08:01.335Z,50.69
2016-09-17T06:08:33.677Z,50.31
2016-09-17T06:09:06.011Z,50.31
2016-09-17T06:09:38.351Z,50.69
2016-09-17T06:10:10.676Z,50.79
2016-09-17T06:10:43.008Z,50.79
2016-09-17T06:11:15.333Z,50.21
2016-09-17T06:11:47.656Z,50.69
2016-09-17T06:12:19.985Z,50.89
2016-09-17T06:12:52.303Z,50.31
2016-09-17T06:13:24.640Z,50.79
2016-09-17T06:13:56.953Z,50.79
2016-09-17T06:14:29.281Z,50.98
2016-09-17T06:15:01.589Z,50.79
2016-09-17T06:15:33.917Z,50.79
2016-09-17T06:16:06.247Z,50.79
2016-09-17T06:16:38.569Z,50.79
2016-09-17T06:17:10.893Z,50.79
2016-09-17T06:17:43.237Z,50.79
2016-09-17T06:18:15.552Z,50.79
2016-09-17T06:18:47.884Z,50.79
2016-09-17T06:19:20.212Z,50.89
2016-09-17T06:19:52.547Z,50.79
2016-09-17T06:20:24.876Z,50.59
2016-09-17T06:20:57.229Z,50.69
2016-09-17T06:21:29.559Z,50.89
2016-09-17T06:22:01.893Z,50.69
2016-09-17T06:22:34.225Z,50.69
2016-09-17T06:23:06.548Z,50.31
2016-09-17T06:23:38.881Z,50.4
2016-09-17T06:24:11.215Z,50.59
2016-09-17T06:24:43.527Z,50.98
2016-09-17T06:25:15.848Z,50.79
2016-09-17T06:25:48.190Z,50.79
2016-09-17T06:26:20.522Z,50.69
2016-09-17T06:26:52.838Z,50.79
2016-09-17T06:27:25.156Z,50.59
2016-09-17T06:27:57.501Z,50.89
2016-09-17T06:28:29.822Z,50.79
2016-09-17T06:29:02.151Z,50.69
2016-09-17T06:29:34.464Z,50.21
2016-09-17T06:30:06.786Z,50.31
2016-09-17T06:30:39.118Z,50.5
2016-09-17T06:31:11.439Z,50.4
2016-09-17T06:31:43.754Z,50.31
2016-09-17T06:32:16.079Z,50.71
2016-09-17T06:32:48.411Z,50.69
2016-09-17T06:33:20.743Z,50.43
2016-09-17T06:33:53.053Z,50.91
2016-09-17T06:34:25.380Z,50.43
2016-09-17T06:34:57.719Z,50.81
2016-09-17T06:35:30.056Z,50.52
2016-09-17T06:36:02.368Z,50.33
2016-09-17T06:36:34.709Z,50.33
2016-09-17T06:37:07.038Z,50.31
2016-09-17T06:37:39.505Z,50.62
2016-09-17T06:38:11.836Z,50.33
2016-09-17T06:38:44.147Z,50.62
2016-09-17T06:39:16.466Z,50.23
2016-09-17T06:39:48.810Z,50.23
2016-09-17T06:40:21.119Z,50.71
2016-09-17T06:40:53.454Z,50.62
2016-09-17T06:41:25.778Z,50.23
2016-09-17T06:41:58.099Z,50.62
2016-09-17T06:42:30.423Z,50.43
2016-09-17T06:43:02.750Z,50.33
2016-09-17T06:43:35.069Z,50.43
2016-09-17T06:44:07.384Z,50.43
2016-09-17T06:44:39.685Z,50.62
2016-09-17T06:45:12.005Z,50.23
2016-09-17T06:45:44.332Z,50.62
2016-09-17T06:46:16.659Z,50.52
2016-09-17T06:46:48.968Z,50.52
2016-09-17T06:47:21.286Z,50.43
2016-09-17T06:47:53.613Z,50.52
2016-09-17T06:48:25.953Z,50.52
2016-09-17T06:48:58.301Z,50.62
2016-09-17T06:49:30.625Z,50.43
2016-09-17T06:50:02.960Z,50.43
2016-09-17T06:50:35.288Z,50.43
2016-09-17T06:51:07.593Z,50.43
2016-09-17T06:51:39.924Z,50.43
2016-09-17T06:52:12.250Z,50.62
2016-09-17T06:52:44.582Z,50.43
2016-09-17T06:53:16.907Z,50.43
2016-09-17T06:53:49.220Z,50.33
2016-09-17T06:54:21.552Z,50.43
2016-09-17T06:54:53.880Z,50.43
2016-09-17T06:55:26.203Z,50.33
2016-09-17T06:55:58.536Z,50.33
2016-09-17T06:56:30.857Z,50.62
2016-09-17T06:57:03.187Z,50.33
2016-09-17T06:57:35.515Z,50.62
2016-09-17T06:58:07.841Z,50.62